sensor_id;sensor_type;location;lat;lon;timestamp;pressure;altitude;pressure_sealevel;temperature
64904;BMP280;51401;48.882;12.598;2023-05-27T00:02:15;98132.38;;;13.33
64904;BMP280;51401;48.882;12.598;2023-05-27T00:04:41;98106.38;;;13.29
64904;BMP280;51401;48.882;12.598;2023-05-27T00:07:06;98113.84;;;13.21
64904;BMP280;51401;48.882;12.598;2023-05-27T00:09:31;98120.56;;;13.15
64904;BMP280;51401;48.882;12.598;2023-05-27T00:11:57;98113.50;;;13.12
64904;BMP280;51401;48.882;12.598;2023-05-27T00:14:22;98111.66;;;13.09
64904;BMP280;51401;48.882;12.598;2023-05-27T00:16:48;98078.94;;;13.01
64904;BMP280;51401;48.882;12.598;2023-05-27T00:19:15;98034.41;;;12.85
64904;BMP280;51401;48.882;12.598;2023-05-27T00:21:42;98020.25;;;12.93
64904;BMP280;51401;48.882;12.598;2023-05-27T00:24:07;98076.66;;;13.17
64904;BMP280;51401;48.882;12.598;2023-05-27T00:26:33;98063.59;;;13.27
64904;BMP280;51401;48.882;12.598;2023-05-27T00:28:58;98107.06;;;13.33
64904;BMP280;51401;48.882;12.598;2023-05-27T00:31:24;98096.75;;;13.20
64904;BMP280;51401;48.882;12.598;2023-05-27T00:33:50;98126.09;;;13.27
64904;BMP280;51401;48.882;12.598;2023-05-27T00:36:15;98140.16;;;13.43
64904;BMP280;51401;48.882;12.598;2023-05-27T00:38:41;98127.91;;;13.33
64904;BMP280;51401;48.882;12.598;2023-05-27T00:41:07;98099.69;;;13.22
64904;BMP280;51401;48.882;12.598;2023-05-27T00:43:32;98050.69;;;13.03
64904;BMP280;51401;48.882;12.598;2023-05-27T00:45:58;98061.13;;;12.93
64904;BMP280;51401;48.882;12.598;2023-05-27T00:48:23;98023.28;;;12.81
64904;BMP280;51401;48.882;12.598;2023-05-27T00:50:48;98024.34;;;12.77
64904;BMP280;51401;48.882;12.598;2023-05-27T00:53:15;97979.38;;;12.76
64904;BMP280;51401;48.882;12.598;2023-05-27T00:55:41;97961.59;;;12.71
64904;BMP280;51401;48.882;12.598;2023-05-27T00:58:07;97871.72;;;12.60
64904;BMP280;51401;48.882;12.598;2023-05-27T01:00:34;97788.50;;;12.53
64904;BMP280;51401;48.882;12.598;2023-05-27T01:02:59;97682.31;;;12.48
64904;BMP280;51401;48.882;12.598;2023-05-27T01:05:25;97454.31;;;12.42
64904;BMP280;51401;48.882;12.598;2023-05-27T01:10:49;97074.53;;;12.56
64904;BMP280;51401;48.882;12.598;2023-05-27T01:15:53;97071.19;;;12.55
64904;BMP280;51401;48.882;12.598;2023-05-27T01:18:22;97070.13;;;12.53
64904;BMP280;51401;48.882;12.598;2023-05-27T01:20:51;97088.66;;;12.55
64904;BMP280;51401;48.882;12.598;2023-05-27T01:23:17;97132.16;;;12.51
64904;BMP280;51401;48.882;12.598;2023-05-27T01:25:42;97105.22;;;12.41
64904;BMP280;51401;48.882;12.598;2023-05-27T01:28:07;97118.69;;;12.37
64904;BMP280;51401;48.882;12.598;2023-05-27T01:30:33;97004.47;;;12.26
64904;BMP280;51401;48.882;12.598;2023-05-27T01:32:59;96929.59;;;12.21
64904;BMP280;51401;48.882;12.598;2023-05-27T01:35:34;96594.41;;;12.06
64904;BMP280;51401;48.882;12.598;2023-05-27T01:38:05;96128.06;;;11.92
64904;BMP280;51401;48.882;12.598;2023-05-27T01:40:33;95983.53;;;11.89
64904;BMP280;51401;48.882;12.598;2023-05-27T01:42:59;95948.41;;;11.85
64904;BMP280;51401;48.882;12.598;2023-05-27T01:45:25;96122.88;;;11.92
64904;BMP280;51401;48.882;12.598;2023-05-27T01:47:51;96254.06;;;11.97
64904;BMP280;51401;48.882;12.598;2023-05-27T01:50:16;96440.97;;;12.12
64904;BMP280;51401;48.882;12.598;2023-05-27T01:52:41;96510.38;;;12.12
64904;BMP280;51401;48.882;12.598;2023-05-27T01:55:07;96652.16;;;12.29
64904;BMP280;51401;48.882;12.598;2023-05-27T01:57:33;96646.41;;;12.37
64904;BMP280;51401;48.882;12.598;2023-05-27T01:59:58;96724.03;;;12.35
64904;BMP280;51401;48.882;12.598;2023-05-27T02:02:24;96773.09;;;12.49
64904;BMP280;51401;48.882;12.598;2023-05-27T02:04:49;96870.03;;;12.65
64904;BMP280;51401;48.882;12.598;2023-05-27T02:07:15;96973.28;;;12.68
64904;BMP280;51401;48.882;12.598;2023-05-27T02:09:41;97101.44;;;12.88
64904;BMP280;51401;48.882;12.598;2023-05-27T02:12:07;97252.16;;;12.98
64904;BMP280;51401;48.882;12.598;2023-05-27T02:14:32;97306.50;;;12.93
64904;BMP280;51401;48.882;12.598;2023-05-27T02:16:59;97328.50;;;12.88
64904;BMP280;51401;48.882;12.598;2023-05-27T02:19:24;97378.25;;;12.90
64904;BMP280;51401;48.882;12.598;2023-05-27T02:21:50;97450.25;;;13.00
64904;BMP280;51401;48.882;12.598;2023-05-27T02:24:16;97647.53;;;13.12
64904;BMP280;51401;48.882;12.598;2023-05-27T02:26:41;97641.59;;;13.08
64904;BMP280;51401;48.882;12.598;2023-05-27T02:29:06;97704.81;;;13.12
64904;BMP280;51401;48.882;12.598;2023-05-27T02:31:31;97815.44;;;13.30
64904;BMP280;51401;48.882;12.598;2023-05-27T02:33:57;97830.72;;;13.28
64904;BMP280;51401;48.882;12.598;2023-05-27T02:36:22;97823.59;;;13.35
64904;BMP280;51401;48.882;12.598;2023-05-27T02:38:49;97825.22;;;13.23
64904;BMP280;51401;48.882;12.598;2023-05-27T02:41:14;97846.81;;;13.20
64904;BMP280;51401;48.882;12.598;2023-05-27T02:43:39;97814.88;;;13.12
64904;BMP280;51401;48.882;12.598;2023-05-27T02:46:05;97841.22;;;13.18
64904;BMP280;51401;48.882;12.598;2023-05-27T02:48:30;97827.47;;;13.14
64904;BMP280;51401;48.882;12.598;2023-05-27T02:50:55;97822.63;;;13.19
64904;BMP280;51401;48.882;12.598;2023-05-27T02:53:21;97856.81;;;13.21
64904;BMP280;51401;48.882;12.598;2023-05-27T02:55:46;97804.41;;;13.19
64904;BMP280;51401;48.882;12.598;2023-05-27T02:58:12;97851.16;;;13.29
64904;BMP280;51401;48.882;12.598;2023-05-27T03:00:37;97863.13;;;13.20
64904;BMP280;51401;48.882;12.598;2023-05-27T03:03:02;97846.41;;;13.25
64904;BMP280;51401;48.882;12.598;2023-05-27T03:05:32;97849.41;;;13.20
64904;BMP280;51401;48.882;12.598;2023-05-27T03:07:57;97869.03;;;13.27
64904;BMP280;51401;48.882;12.598;2023-05-27T03:10:22;97887.59;;;13.36
64904;BMP280;51401;48.882;12.598;2023-05-27T03:12:48;97934.47;;;13.36
64904;BMP280;51401;48.882;12.598;2023-05-27T03:15:13;97896.19;;;13.27
64904;BMP280;51401;48.882;12.598;2023-05-27T03:17:39;97878.03;;;13.16
64904;BMP280;51401;48.882;12.598;2023-05-27T03:20:05;97898.94;;;13.13
64904;BMP280;51401;48.882;12.598;2023-05-27T03:22:32;97925.97;;;13.26
64904;BMP280;51401;48.882;12.598;2023-05-27T03:24:58;97963.44;;;13.38
64904;BMP280;51401;48.882;12.598;2023-05-27T03:27:23;97954.97;;;13.31
64904;BMP280;51401;48.882;12.598;2023-05-27T03:29:48;97938.94;;;13.32
64904;BMP280;51401;48.882;12.598;2023-05-27T03:32:14;97860.53;;;13.20
64904;BMP280;51401;48.882;12.598;2023-05-27T03:34:39;97983.16;;;13.39
64904;BMP280;51401;48.882;12.598;2023-05-27T03:37:04;97968.31;;;13.33
64904;BMP280;51401;48.882;12.598;2023-05-27T03:39:29;97979.06;;;13.38
64904;BMP280;51401;48.882;12.598;2023-05-27T03:41:55;97989.09;;;13.40
64904;BMP280;51401;48.882;12.598;2023-05-27T03:44:20;98027.38;;;13.50
64904;BMP280;51401;48.882;12.598;2023-05-27T03:46:46;97997.69;;;13.40
64904;BMP280;51401;48.882;12.598;2023-05-27T03:49:11;98015.50;;;13.42
64904;BMP280;51401;48.882;12.598;2023-05-27T03:51:37;98025.94;;;13.38
64904;BMP280;51401;48.882;12.598;2023-05-27T03:54:02;97993.28;;;13.30
64904;BMP280;51401;48.882;12.598;2023-05-27T03:56:28;97991.06;;;13.26
64904;BMP280;51401;48.882;12.598;2023-05-27T03:58:53;97970.25;;;13.26
64904;BMP280;51401;48.882;12.598;2023-05-27T04:01:18;97999.59;;;13.29
64904;BMP280;51401;48.882;12.598;2023-05-27T04:03:45;98018.56;;;13.30
64904;BMP280;51401;48.882;12.598;2023-05-27T04:06:10;98012.63;;;13.29
64904;BMP280;51401;48.882;12.598;2023-05-27T04:08:36;98024.09;;;13.42
64904;BMP280;51401;48.882;12.598;2023-05-27T04:11:02;98037.69;;;13.67
64904;BMP280;51401;48.882;12.598;2023-05-27T04:13:28;98067.31;;;13.86
64904;BMP280;51401;48.882;12.598;2023-05-27T04:15:53;98069.56;;;13.91
64904;BMP280;51401;48.882;12.598;2023-05-27T04:18:19;98090.66;;;14.04
64904;BMP280;51401;48.882;12.598;2023-05-27T04:20:44;98104.44;;;14.47
64904;BMP280;51401;48.882;12.598;2023-05-27T04:23:12;98149.91;;;14.90
64904;BMP280;51401;48.882;12.598;2023-05-27T04:25:37;98176.72;;;15.27
64904;BMP280;51401;48.882;12.598;2023-05-27T04:28:04;98195.00;;;15.59
64904;BMP280;51401;48.882;12.598;2023-05-27T04:30:31;98224.16;;;15.84
64904;BMP280;51401;48.882;12.598;2023-05-27T04:32:56;98236.19;;;16.08
64904;BMP280;51401;48.882;12.598;2023-05-27T04:35:22;98238.84;;;16.30
64904;BMP280;51401;48.882;12.598;2023-05-27T04:37:48;98252.97;;;16.59
64904;BMP280;51401;48.882;12.598;2023-05-27T04:40:14;98224.47;;;16.42
64904;BMP280;51401;48.882;12.598;2023-05-27T04:42:39;98258.03;;;16.92
64904;BMP280;51401;48.882;12.598;2023-05-27T04:45:05;98266.22;;;17.16
64904;BMP280;51401;48.882;12.598;2023-05-27T04:47:34;98281.34;;;17.47
64904;BMP280;51401;48.882;12.598;2023-05-27T04:50:05;98294.47;;;17.66
64904;BMP280;51401;48.882;12.598;2023-05-27T04:52:31;98290.06;;;17.98
64904;BMP280;51401;48.882;12.598;2023-05-27T04:55:05;98293.81;;;17.97
64904;BMP280;51401;48.882;12.598;2023-05-27T04:57:32;98267.25;;;17.76
64904;BMP280;51401;48.882;12.598;2023-05-27T04:59:58;98315.53;;;18.33
64904;BMP280;51401;48.882;12.598;2023-05-27T05:02:27;98305.00;;;18.48
64904;BMP280;51401;48.882;12.598;2023-05-27T05:05:03;98312.06;;;18.83
64904;BMP280;51401;48.882;12.598;2023-05-27T05:07:29;98319.53;;;18.84
64904;BMP280;51401;48.882;12.598;2023-05-27T05:09:55;98336.50;;;19.11
64904;BMP280;51401;48.882;12.598;2023-05-27T05:12:21;98347.91;;;19.20
64904;BMP280;51401;48.882;12.598;2023-05-27T05:14:46;98351.53;;;19.39
64904;BMP280;51401;48.882;12.598;2023-05-27T05:17:12;98346.53;;;19.00
64904;BMP280;51401;48.882;12.598;2023-05-27T05:19:37;98343.75;;;19.07
64904;BMP280;51401;48.882;12.598;2023-05-27T05:22:03;98341.84;;;19.23
64904;BMP280;51401;48.882;12.598;2023-05-27T05:24:29;98354.63;;;19.21
64904;BMP280;51401;48.882;12.598;2023-05-27T05:26:54;98348.38;;;19.31
64904;BMP280;51401;48.882;12.598;2023-05-27T05:29:20;98360.19;;;19.39
64904;BMP280;51401;48.882;12.598;2023-05-27T05:31:45;98359.28;;;19.45
64904;BMP280;51401;48.882;12.598;2023-05-27T05:34:11;98369.31;;;19.35
64904;BMP280;51401;48.882;12.598;2023-05-27T05:36:36;98359.44;;;19.11
64904;BMP280;51401;48.882;12.598;2023-05-27T05:39:02;98348.88;;;19.26
64904;BMP280;51401;48.882;12.598;2023-05-27T05:41:28;98345.25;;;19.48
64904;BMP280;51401;48.882;12.598;2023-05-27T05:43:54;98353.41;;;19.66
64904;BMP280;51401;48.882;12.598;2023-05-27T05:46:19;98352.75;;;19.90
64904;BMP280;51401;48.882;12.598;2023-05-27T05:48:44;98369.09;;;20.22
64904;BMP280;51401;48.882;12.598;2023-05-27T05:51:10;98346.75;;;20.39
64904;BMP280;51401;48.882;12.598;2023-05-27T05:53:35;98365.28;;;20.48
64904;BMP280;51401;48.882;12.598;2023-05-27T05:56:01;98377.75;;;20.35
64904;BMP280;51401;48.882;12.598;2023-05-27T05:58:26;98380.84;;;20.05
64904;BMP280;51401;48.882;12.598;2023-05-27T06:00:52;98377.47;;;19.93
64904;BMP280;51401;48.882;12.598;2023-05-27T06:03:17;98361.28;;;19.94
64904;BMP280;51401;48.882;12.598;2023-05-27T06:05:42;98350.22;;;19.99
64904;BMP280;51401;48.882;12.598;2023-05-27T06:08:07;98357.28;;;20.26
64904;BMP280;51401;48.882;12.598;2023-05-27T06:10:33;98366.25;;;20.87
64904;BMP280;51401;48.882;12.598;2023-05-27T06:12:58;98373.28;;;21.02
64904;BMP280;51401;48.882;12.598;2023-05-27T06:15:23;98385.72;;;21.35
64904;BMP280;51401;48.882;12.598;2023-05-27T06:17:49;98398.88;;;21.47
64904;BMP280;51401;48.882;12.598;2023-05-27T06:20:14;98409.16;;;21.33
64904;BMP280;51401;48.882;12.598;2023-05-27T06:22:40;98410.13;;;21.05
64904;BMP280;51401;48.882;12.598;2023-05-27T06:25:05;98405.50;;;20.85
64904;BMP280;51401;48.882;12.598;2023-05-27T06:27:31;98394.44;;;20.90
64904;BMP280;51401;48.882;12.598;2023-05-27T06:29:56;98405.75;;;21.11
64904;BMP280;51401;48.882;12.598;2023-05-27T06:32:22;98393.56;;;21.26
64904;BMP280;51401;48.882;12.598;2023-05-27T06:34:47;98411.94;;;21.72
64904;BMP280;51401;48.882;12.598;2023-05-27T06:37:13;98428.19;;;21.70
64904;BMP280;51401;48.882;12.598;2023-05-27T06:39:38;98417.25;;;21.59
64904;BMP280;51401;48.882;12.598;2023-05-27T06:42:03;98414.28;;;21.49
64904;BMP280;51401;48.882;12.598;2023-05-27T06:44:29;98404.88;;;21.69
64904;BMP280;51401;48.882;12.598;2023-05-27T06:46:54;98393.38;;;21.84
64904;BMP280;51401;48.882;12.598;2023-05-27T06:49:20;98374.38;;;21.47
64904;BMP280;51401;48.882;12.598;2023-05-27T06:51:45;98382.69;;;22.17
64904;BMP280;51401;48.882;12.598;2023-05-27T06:54:10;98382.13;;;22.31
64904;BMP280;51401;48.882;12.598;2023-05-27T06:56:37;98398.03;;;22.49
64904;BMP280;51401;48.882;12.598;2023-05-27T06:59:03;98389.25;;;22.61
64904;BMP280;51401;48.882;12.598;2023-05-27T07:01:28;98383.78;;;22.08
64904;BMP280;51401;48.882;12.598;2023-05-27T07:03:53;98395.19;;;22.91
64904;BMP280;51401;48.882;12.598;2023-05-27T07:06:19;98406.47;;;23.36
64904;BMP280;51401;48.882;12.598;2023-05-27T07:08:44;98418.56;;;23.19
64904;BMP280;51401;48.882;12.598;2023-05-27T07:11:09;98428.13;;;23.16
64904;BMP280;51401;48.882;12.598;2023-05-27T07:13:35;98426.66;;;23.07
64904;BMP280;51401;48.882;12.598;2023-05-27T07:16:00;98421.38;;;23.07
64904;BMP280;51401;48.882;12.598;2023-05-27T07:18:25;98420.75;;;23.12
64904;BMP280;51401;48.882;12.598;2023-05-27T07:20:51;98420.47;;;23.27
64904;BMP280;51401;48.882;12.598;2023-05-27T07:23:16;98440.47;;;23.19
64904;BMP280;51401;48.882;12.598;2023-05-27T07:25:42;98437.19;;;23.60
64904;BMP280;51401;48.882;12.598;2023-05-27T07:28:07;98441.84;;;23.91
64904;BMP280;51401;48.882;12.598;2023-05-27T07:30:32;98443.91;;;23.87
64904;BMP280;51401;48.882;12.598;2023-05-27T07:32:58;98436.03;;;23.69
64904;BMP280;51401;48.882;12.598;2023-05-27T07:35:23;98428.91;;;23.93
64904;BMP280;51401;48.882;12.598;2023-05-27T07:37:48;98434.09;;;23.61
64904;BMP280;51401;48.882;12.598;2023-05-27T07:40:14;98420.56;;;23.59
64904;BMP280;51401;48.882;12.598;2023-05-27T07:42:39;98431.63;;;24.16
64904;BMP280;51401;48.882;12.598;2023-05-27T07:45:05;98415.66;;;24.25
64904;BMP280;51401;48.882;12.598;2023-05-27T07:47:31;98420.66;;;24.23
64904;BMP280;51401;48.882;12.598;2023-05-27T07:49:56;98420.81;;;24.19
64904;BMP280;51401;48.882;12.598;2023-05-27T07:52:21;98411.94;;;23.99
64904;BMP280;51401;48.882;12.598;2023-05-27T07:54:47;98395.16;;;24.02
64904;BMP280;51401;48.882;12.598;2023-05-27T07:57:13;98404.09;;;23.64
64904;BMP280;51401;48.882;12.598;2023-05-27T07:59:41;98407.84;;;24.21
64904;BMP280;51401;48.882;12.598;2023-05-27T08:02:07;98421.28;;;24.73
64904;BMP280;51401;48.882;12.598;2023-05-27T08:04:32;98416.56;;;24.68
64904;BMP280;51401;48.882;12.598;2023-05-27T08:06:57;98417.81;;;24.81
64904;BMP280;51401;48.882;12.598;2023-05-27T08:09:23;98395.34;;;24.45
64904;BMP280;51401;48.882;12.598;2023-05-27T08:11:49;98409.28;;;24.77
64904;BMP280;51401;48.882;12.598;2023-05-27T08:14:15;98414.13;;;24.33
64904;BMP280;51401;48.882;12.598;2023-05-27T08:16:41;98413.06;;;24.39
64904;BMP280;51401;48.882;12.598;2023-05-27T08:19:06;98409.00;;;24.98
64904;BMP280;51401;48.882;12.598;2023-05-27T08:21:32;98401.13;;;24.66
64904;BMP280;51401;48.882;12.598;2023-05-27T08:23:57;98403.03;;;24.43
64904;BMP280;51401;48.882;12.598;2023-05-27T08:26:22;98400.94;;;24.24
64904;BMP280;51401;48.882;12.598;2023-05-27T08:28:48;98410.13;;;24.37
64904;BMP280;51401;48.882;12.598;2023-05-27T08:31:13;98398.81;;;24.05
64904;BMP280;51401;48.882;12.598;2023-05-27T08:33:39;98397.53;;;24.00
64904;BMP280;51401;48.882;12.598;2023-05-27T08:36:05;98397.84;;;24.71
64904;BMP280;51401;48.882;12.598;2023-05-27T08:38:31;98392.94;;;24.79
64904;BMP280;51401;48.882;12.598;2023-05-27T08:40:56;98396.88;;;24.37
64904;BMP280;51401;48.882;12.598;2023-05-27T08:43:23;98393.66;;;24.79
64904;BMP280;51401;48.882;12.598;2023-05-27T08:45:49;98386.72;;;24.96
64904;BMP280;51401;48.882;12.598;2023-05-27T08:48:15;98391.53;;;25.35
64904;BMP280;51401;48.882;12.598;2023-05-27T08:50:40;98403.41;;;25.11
64904;BMP280;51401;48.882;12.598;2023-05-27T08:53:06;98404.13;;;24.97
64904;BMP280;51401;48.882;12.598;2023-05-27T08:55:32;98387.94;;;24.95
64904;BMP280;51401;48.882;12.598;2023-05-27T08:57:58;98409.44;;;24.97
64904;BMP280;51401;48.882;12.598;2023-05-27T09:00:25;98401.66;;;24.70
64904;BMP280;51401;48.882;12.598;2023-05-27T09:02:50;98402.75;;;24.64
64904;BMP280;51401;48.882;12.598;2023-05-27T09:05:16;98376.84;;;25.67
64904;BMP280;51401;48.882;12.598;2023-05-27T09:07:42;98397.38;;;25.10
64904;BMP280;51401;48.882;12.598;2023-05-27T09:10:07;98404.44;;;25.84
64904;BMP280;51401;48.882;12.598;2023-05-27T09:12:33;98396.78;;;26.06
64904;BMP280;51401;48.882;12.598;2023-05-27T09:14:59;98379.22;;;25.94
64904;BMP280;51401;48.882;12.598;2023-05-27T09:17:24;98378.41;;;26.08
64904;BMP280;51401;48.882;12.598;2023-05-27T09:19:53;98380.91;;;24.46
64904;BMP280;51401;48.882;12.598;2023-05-27T09:22:24;98360.56;;;25.32
64904;BMP280;51401;48.882;12.598;2023-05-27T09:24:52;98365.16;;;26.27
64904;BMP280;51401;48.882;12.598;2023-05-27T09:27:19;98376.72;;;26.88
64904;BMP280;51401;48.882;12.598;2023-05-27T09:29:44;98373.47;;;26.54
64904;BMP280;51401;48.882;12.598;2023-05-27T09:32:10;98376.00;;;26.88
64904;BMP280;51401;48.882;12.598;2023-05-27T09:34:39;98356.22;;;26.30
64904;BMP280;51401;48.882;12.598;2023-05-27T09:37:04;98370.34;;;26.81
64904;BMP280;51401;48.882;12.598;2023-05-27T09:39:30;98374.00;;;26.58
64904;BMP280;51401;48.882;12.598;2023-05-27T09:41:57;98366.19;;;25.82
64904;BMP280;51401;48.882;12.598;2023-05-27T09:44:27;98374.69;;;25.23
64904;BMP280;51401;48.882;12.598;2023-05-27T09:46:53;98359.28;;;25.41
64904;BMP280;51401;48.882;12.598;2023-05-27T09:49:19;98367.66;;;25.83
64904;BMP280;51401;48.882;12.598;2023-05-27T09:51:46;98378.41;;;26.08
64904;BMP280;51401;48.882;12.598;2023-05-27T09:54:17;98376.44;;;26.42
64904;BMP280;51401;48.882;12.598;2023-05-27T09:56:44;98359.03;;;26.41
64904;BMP280;51401;48.882;12.598;2023-05-27T09:59:11;98366.38;;;26.96
64904;BMP280;51401;48.882;12.598;2023-05-27T10:01:37;98352.31;;;27.20
64904;BMP280;51401;48.882;12.598;2023-05-27T10:04:03;98360.22;;;26.85
64904;BMP280;51401;48.882;12.598;2023-05-27T10:06:30;98365.59;;;26.06
64904;BMP280;51401;48.882;12.598;2023-05-27T10:08:57;98371.03;;;27.01
64904;BMP280;51401;48.882;12.598;2023-05-27T10:11:22;98362.63;;;27.38
64904;BMP280;51401;48.882;12.598;2023-05-27T10:13:49;98359.94;;;27.68
64904;BMP280;51401;48.882;12.598;2023-05-27T10:16:21;98352.91;;;27.65
64904;BMP280;51401;48.882;12.598;2023-05-27T10:18:48;98350.44;;;27.57
64904;BMP280;51401;48.882;12.598;2023-05-27T10:21:19;98358.06;;;27.44
64904;BMP280;51401;48.882;12.598;2023-05-27T10:23:58;98355.00;;;27.51
64904;BMP280;51401;48.882;12.598;2023-05-27T10:26:38;98339.56;;;26.99
64904;BMP280;51401;48.882;12.598;2023-05-27T10:29:16;98334.19;;;27.55
64904;BMP280;51401;48.882;12.598;2023-05-27T10:31:52;98340.34;;;27.71
64904;BMP280;51401;48.882;12.598;2023-05-27T10:34:17;98331.13;;;25.97
64904;BMP280;51401;48.882;12.598;2023-05-27T10:36:46;98336.78;;;26.63
64904;BMP280;51401;48.882;12.598;2023-05-27T10:41:58;98324.34;;;27.05
64904;BMP280;51401;48.882;12.598;2023-05-27T10:44:37;98329.50;;;25.86
64904;BMP280;51401;48.882;12.598;2023-05-27T10:47:03;98323.56;;;25.57
64904;BMP280;51401;48.882;12.598;2023-05-27T10:49:32;98312.94;;;25.57
64904;BMP280;51401;48.882;12.598;2023-05-27T10:54:43;98314.50;;;26.61
64904;BMP280;51401;48.882;12.598;2023-05-27T10:57:10;98320.94;;;26.74
64904;BMP280;51401;48.882;12.598;2023-05-27T10:59:53;98318.56;;;26.82
64904;BMP280;51401;48.882;12.598;2023-05-27T11:02:19;98321.78;;;26.41
64904;BMP280;51401;48.882;12.598;2023-05-27T11:04:45;98312.38;;;26.45
64904;BMP280;51401;48.882;12.598;2023-05-27T11:07:10;98323.53;;;27.24
64904;BMP280;51401;48.882;12.598;2023-05-27T11:09:46;98321.53;;;26.89
64904;BMP280;51401;48.882;12.598;2023-05-27T11:12:16;98317.88;;;26.62
64904;BMP280;51401;48.882;12.598;2023-05-27T11:14:43;98314.25;;;26.39
64904;BMP280;51401;48.882;12.598;2023-05-27T11:17:12;98318.31;;;26.35
64904;BMP280;51401;48.882;12.598;2023-05-27T11:19:39;98315.00;;;26.20
64904;BMP280;51401;48.882;12.598;2023-05-27T11:22:10;98304.81;;;26.19
64904;BMP280;51401;48.882;12.598;2023-05-27T11:24:37;98303.47;;;27.29
64904;BMP280;51401;48.882;12.598;2023-05-27T11:27:14;98300.56;;;27.32
64904;BMP280;51401;48.882;12.598;2023-05-27T11:29:48;98295.84;;;27.16
64904;BMP280;51401;48.882;12.598;2023-05-27T11:32:16;98286.31;;;27.76
64904;BMP280;51401;48.882;12.598;2023-05-27T11:34:43;98278.88;;;27.91
64904;BMP280;51401;48.882;12.598;2023-05-27T11:37:09;98285.53;;;28.22
64904;BMP280;51401;48.882;12.598;2023-05-27T11:39:34;98274.69;;;27.79
64904;BMP280;51401;48.882;12.598;2023-05-27T11:42:05;98267.81;;;27.57
64904;BMP280;51401;48.882;12.598;2023-05-27T11:44:31;98263.06;;;27.36
64904;BMP280;51401;48.882;12.598;2023-05-27T11:47:00;98277.06;;;27.66
64904;BMP280;51401;48.882;12.598;2023-05-27T11:49:27;98275.28;;;27.53
64904;BMP280;51401;48.882;12.598;2023-05-27T11:51:55;98257.91;;;27.21
64904;BMP280;51401;48.882;12.598;2023-05-27T11:54:30;98263.59;;;27.91
64904;BMP280;51401;48.882;12.598;2023-05-27T11:56:58;98266.59;;;27.58
64904;BMP280;51401;48.882;12.598;2023-05-27T11:59:24;98269.84;;;27.31
64904;BMP280;51401;48.882;12.598;2023-05-27T12:01:52;98264.16;;;27.18
64904;BMP280;51401;48.882;12.598;2023-05-27T12:04:19;98264.13;;;26.83
64904;BMP280;51401;48.882;12.598;2023-05-27T12:06:45;98247.28;;;26.16
64904;BMP280;51401;48.882;12.598;2023-05-27T12:09:10;98246.00;;;26.37
64904;BMP280;51401;48.882;12.598;2023-05-27T12:11:37;98252.38;;;27.71
64904;BMP280;51401;48.882;12.598;2023-05-27T12:14:03;98244.34;;;28.56
64904;BMP280;51401;48.882;12.598;2023-05-27T12:16:28;98257.66;;;29.09
64904;BMP280;51401;48.882;12.598;2023-05-27T12:18:54;98260.31;;;29.09
64904;BMP280;51401;48.882;12.598;2023-05-27T12:21:19;98249.91;;;28.84
64904;BMP280;51401;48.882;12.598;2023-05-27T12:23:45;98244.81;;;28.54
64904;BMP280;51401;48.882;12.598;2023-05-27T12:26:13;98239.81;;;27.36
64904;BMP280;51401;48.882;12.598;2023-05-27T12:28:39;98241.69;;;27.66
64904;BMP280;51401;48.882;12.598;2023-05-27T12:31:05;98237.09;;;26.89
64904;BMP280;51401;48.882;12.598;2023-05-27T12:33:30;98226.06;;;28.06
64904;BMP280;51401;48.882;12.598;2023-05-27T12:35:57;98213.50;;;28.55
64904;BMP280;51401;48.882;12.598;2023-05-27T12:38:22;98228.97;;;29.15
64904;BMP280;51401;48.882;12.598;2023-05-27T12:40:47;98222.66;;;29.18
64904;BMP280;51401;48.882;12.598;2023-05-27T12:43:14;98233.72;;;29.54
64904;BMP280;51401;48.882;12.598;2023-05-27T12:45:39;98228.88;;;29.48
64904;BMP280;51401;48.882;12.598;2023-05-27T12:48:05;98234.38;;;28.94
64904;BMP280;51401;48.882;12.598;2023-05-27T12:50:30;98238.25;;;28.82
64904;BMP280;51401;48.882;12.598;2023-05-27T12:52:57;98219.75;;;27.98
64904;BMP280;51401;48.882;12.598;2023-05-27T12:55:22;98219.81;;;28.62
64904;BMP280;51401;48.882;12.598;2023-05-27T12:57:49;98227.53;;;28.17
64904;BMP280;51401;48.882;12.598;2023-05-27T13:00:16;98207.66;;;28.99
64904;BMP280;51401;48.882;12.598;2023-05-27T13:02:43;98222.38;;;29.32
64904;BMP280;51401;48.882;12.598;2023-05-27T13:05:08;98225.84;;;28.84
64904;BMP280;51401;48.882;12.598;2023-05-27T13:07:35;98228.31;;;28.72
64904;BMP280;51401;48.882;12.598;2023-05-27T13:10:04;98219.81;;;28.35
64904;BMP280;51401;48.882;12.598;2023-05-27T13:12:31;98209.75;;;29.33
64904;BMP280;51401;48.882;12.598;2023-05-27T13:15:00;98205.69;;;29.72
64904;BMP280;51401;48.882;12.598;2023-05-27T13:17:28;98207.47;;;29.58
64904;BMP280;51401;48.882;12.598;2023-05-27T13:19:53;98202.84;;;28.65
64904;BMP280;51401;48.882;12.598;2023-05-27T13:22:18;98187.78;;;28.73
64904;BMP280;51401;48.882;12.598;2023-05-27T13:24:44;98186.06;;;28.86
64904;BMP280;51401;48.882;12.598;2023-05-27T13:27:10;98183.59;;;29.10
64904;BMP280;51401;48.882;12.598;2023-05-27T13:29:36;98182.44;;;28.41
64904;BMP280;51401;48.882;12.598;2023-05-27T13:32:01;98175.06;;;27.82
64904;BMP280;51401;48.882;12.598;2023-05-27T13:34:27;98175.59;;;27.29
64904;BMP280;51401;48.882;12.598;2023-05-27T13:36:55;98173.84;;;27.20
64904;BMP280;51401;48.882;12.598;2023-05-27T13:39:20;98173.44;;;28.06
64904;BMP280;51401;48.882;12.598;2023-05-27T13:41:45;98178.81;;;28.55
64904;BMP280;51401;48.882;12.598;2023-05-27T13:44:10;98170.78;;;28.65
64904;BMP280;51401;48.882;12.598;2023-05-27T13:46:36;98167.09;;;28.90
64904;BMP280;51401;48.882;12.598;2023-05-27T13:49:01;98165.78;;;29.23
64904;BMP280;51401;48.882;12.598;2023-05-27T13:51:29;98163.28;;;28.37
64904;BMP280;51401;48.882;12.598;2023-05-27T13:53:55;98166.34;;;29.06
64904;BMP280;51401;48.882;12.598;2023-05-27T13:56:21;98166.13;;;29.99
64904;BMP280;51401;48.882;12.598;2023-05-27T13:58:48;98165.44;;;29.48
64904;BMP280;51401;48.882;12.598;2023-05-27T14:01:13;98161.94;;;29.13
64904;BMP280;51401;48.882;12.598;2023-05-27T14:03:38;98157.84;;;29.97